createdAt,value
2019-05-25T00:01:47.473Z,78.08
2019-05-25T00:04:18.471Z,77.96
2019-05-25T00:06:49.476Z,78.35
2019-05-25T00:09:20.392Z,78.84
2019-05-25T00:11:51.414Z,78.99
2019-05-25T00:14:22.520Z,79.03
2019-05-25T00:16:53.516Z,79.16
2019-05-25T00:19:24.524Z,79.31
2019-05-25T00:21:55.516Z,79.67
2019-05-25T00:24:26.470Z,80.02
2019-05-25T00:26:57.460Z,80.00
2019-05-25T00:29:28.394Z,80.03
2019-05-25T00:31:59.337Z,79.95
2019-05-25T00:34:30.469Z,79.87
2019-05-25T00:37:01.466Z,79.79
2019-05-25T00:39:32.389Z,79.85
2019-05-25T00:42:03.463Z,80.04
2019-05-25T00:44:34.383Z,80.35
2019-05-25T00:47:05.516Z,80.25
2019-05-25T00:49:36.485Z,80.27
2019-05-25T00:52:07.599Z,80.52
2019-05-25T00:54:38.557Z,80.48
2019-05-25T00:57:09.581Z,80.51
2019-05-25T00:59:40.663Z,80.55
2019-05-25T01:02:11.682Z,80.47
2019-05-25T01:04:42.722Z,80.52
2019-05-25T01:07:13.707Z,80.58
2019-05-25T01:09:44.673Z,80.70
2019-05-25T01:12:15.647Z,80.76
2019-05-25T01:14:46.662Z,80.72
2019-05-25T01:17:17.656Z,80.67
2019-05-25T01:19:48.784Z,80.71
2019-05-25T01:22:19.795Z,81.03
2019-05-25T01:24:50.881Z,81.30
2019-05-25T01:27:21.981Z,81.51
2019-05-25T01:29:52.903Z,81.51
2019-05-25T01:32:23.923Z,81.54
2019-05-25T01:34:54.849Z,81.54
2019-05-25T01:37:25.934Z,81.79
2019-05-25T01:39:57.012Z,82.00
2019-05-25T01:42:28.070Z,81.93
2019-05-25T01:44:59.013Z,81.82
2019-05-25T01:47:29.990Z,81.90
2019-05-25T01:50:00.974Z,81.84
2019-05-25T01:52:31.929Z,81.76
2019-05-25T01:55:02.812Z,81.59
2019-05-25T01:57:33.804Z,81.59
2019-05-25T02:00:06.663Z,81.82
2019-05-25T02:02:37.790Z,82.10
2019-05-25T02:05:09.084Z,82.04
2019-05-25T02:07:40.023Z,81.99
2019-05-25T02:10:11.029Z,82.14
2019-05-25T02:12:41.994Z,81.97
2019-05-25T02:15:13.236Z,82.11
2019-05-25T02:17:44.227Z,82.32
2019-05-25T02:20:15.295Z,82.02
2019-05-25T02:22:46.342Z,81.52
2019-05-25T02:25:18.777Z,81.20
2019-05-25T02:27:50.206Z,81.01
2019-05-25T02:30:24.170Z,81.07
2019-05-25T02:32:55.216Z,81.26
2019-05-25T02:35:29.607Z,81.23
2019-05-25T02:38:00.623Z,81.39
2019-05-25T02:40:31.663Z,81.44
2019-05-25T02:43:02.745Z,81.49
2019-05-25T02:45:33.807Z,81.37
2019-05-25T02:48:04.961Z,81.30
2019-05-25T02:50:36.062Z,81.21
2019-05-25T02:53:07.214Z,81.16
2019-05-25T02:55:38.245Z,81.12
2019-05-25T02:58:09.143Z,81.10
2019-05-25T03:00:40.139Z,80.95
2019-05-25T03:03:11.181Z,80.96
2019-05-25T03:05:42.319Z,80.74
2019-05-25T03:08:13.426Z,80.65
2019-05-25T03:10:44.578Z,80.55
2019-05-25T03:13:16.445Z,80.51
2019-05-25T03:15:47.448Z,80.39
2019-05-25T03:18:18.382Z,80.20
2019-05-25T03:20:49.301Z,79.81
2019-05-25T03:23:20.297Z,79.35
2019-05-25T03:25:51.291Z,78.73
2019-05-25T03:28:22.261Z,77.93
2019-05-25T03:30:53.290Z,77.07
2019-05-25T03:33:24.252Z,76.37
2019-05-25T03:35:55.412Z,75.70
2019-05-25T03:38:26.341Z,75.51
2019-05-25T03:40:57.242Z,75.42
2019-05-25T03:43:28.309Z,74.89
2019-05-25T03:45:59.477Z,74.57
2019-05-25T03:48:30.443Z,74.06
2019-05-25T03:51:01.387Z,73.32
2019-05-25T03:53:32.447Z,72.09
2019-05-25T03:56:06.268Z,70.86
2019-05-25T03:58:36.153Z,68.92
2019-05-25T04:01:07.127Z,67.00
2019-05-25T04:03:38.233Z,64.05
2019-05-25T04:06:09.242Z,61.32
2019-05-25T04:08:40.188Z,58.60
2019-05-25T04:11:11.269Z,56.19
2019-05-25T04:13:42.202Z,54.14
2019-05-25T04:16:13.194Z,53.77
2019-05-25T04:18:44.135Z,53.46
2019-05-25T04:21:15.150Z,51.36
2019-05-25T04:23:46.215Z,49.68
2019-05-25T04:26:22.554Z,48.66
2019-05-25T04:28:50.054Z,50.10
2019-05-25T04:31:21.052Z,52.44
2019-05-25T04:33:52.144Z,55.26
2019-05-25T04:36:23.114Z,57.68
2019-05-25T04:38:54.474Z,60.10
2019-05-25T04:41:25.460Z,61.29
2019-05-25T04:43:56.543Z,61.52
2019-05-25T04:46:27.638Z,61.76
2019-05-25T04:48:58.547Z,61.33
2019-05-25T04:51:29.503Z,60.72
2019-05-25T04:54:00.590Z,59.52
2019-05-25T04:56:39.650Z,58.25
2019-05-25T04:59:04.279Z,57.96
2019-05-25T05:01:35.415Z,58.77
2019-05-25T05:04:10.304Z,60.17
2019-05-25T05:06:41.883Z,60.55
2019-05-25T05:09:13.013Z,60.75
2019-05-25T05:11:44.183Z,59.32
2019-05-25T05:14:15.211Z,57.77
2019-05-25T05:16:46.251Z,57.09
2019-05-25T05:19:17.207Z,55.67
2019-05-25T05:21:48.322Z,54.20
2019-05-25T05:24:19.302Z,52.29
2019-05-25T05:26:55.613Z,48.66
2019-05-25T05:29:23.066Z,47.03
2019-05-25T05:31:55.776Z,46.23
2019-05-25T05:34:26.778Z,47.47
2019-05-25T05:36:58.431Z,48.74
2019-05-25T05:39:31.829Z,50.74
2019-05-25T05:42:03.571Z,51.80
2019-05-25T05:44:35.318Z,52.12
2019-05-25T05:47:10.273Z,52.25
2019-05-25T05:49:41.192Z,52.90
2019-05-25T05:52:13.958Z,53.09
2019-05-25T05:54:46.594Z,51.74
2019-05-25T05:57:19.043Z,51.50
2019-05-25T05:59:50.211Z,50.45
2019-05-25T06:02:21.901Z,50.34
2019-05-25T06:04:54.931Z,49.46
2019-05-25T06:07:28.705Z,46.73
2019-05-25T06:09:59.755Z,43.34
2019-05-25T06:12:30.836Z,43.35
2019-05-25T06:15:01.945Z,42.40
2019-05-25T06:17:33.002Z,40.50
2019-05-25T06:20:09.684Z,40.56
2019-05-25T06:22:40.731Z,42.11
2019-05-25T06:25:11.838Z,40.74
2019-05-25T06:27:43.081Z,38.86
2019-05-25T06:30:14.239Z,37.77
2019-05-25T06:32:45.387Z,35.44
2019-05-25T06:35:16.462Z,33.57
2019-05-25T06:37:47.441Z,32.57
2019-05-25T06:40:20.753Z,31.82
2019-05-25T06:42:51.696Z,34.35
2019-05-25T06:45:22.789Z,36.87
2019-05-25T06:47:53.798Z,38.74
2019-05-25T06:50:25.147Z,39.97
2019-05-25T06:52:57.952Z,41.36
2019-05-25T06:55:28.943Z,42.28
2019-05-25T06:57:59.996Z,41.12
2019-05-25T07:00:30.978Z,38.05
2019-05-25T07:03:04.566Z,36.22
2019-05-25T07:05:35.635Z,36.35
2019-05-25T07:08:06.714Z,37.66
2019-05-25T07:10:38.615Z,37.80
2019-05-25T07:13:09.811Z,36.07
2019-05-25T07:15:40.925Z,36.32
2019-05-25T07:18:11.936Z,38.50
2019-05-25T07:20:43.022Z,41.36
2019-05-25T07:23:14.155Z,43.52
2019-05-25T07:25:45.296Z,44.09
2019-05-25T07:28:16.283Z,45.23
2019-05-25T07:30:47.263Z,45.80
2019-05-25T07:33:18.297Z,46.38
2019-05-25T07:35:49.306Z,46.67
2019-05-25T07:38:20.337Z,46.97
2019-05-25T07:40:51.397Z,48.00
2019-05-25T07:43:22.370Z,48.21
2019-05-25T07:45:53.351Z,48.50
2019-05-25T07:48:24.406Z,48.84
2019-05-25T07:50:57.599Z,49.17
2019-05-25T07:53:28.633Z,49.65
2019-05-25T07:55:59.622Z,49.78
2019-05-25T07:58:30.625Z,49.52
2019-05-25T08:01:01.659Z,49.74
2019-05-25T08:03:32.739Z,49.47
2019-05-25T08:06:06.789Z,49.03
2019-05-25T08:08:37.755Z,48.82
2019-05-25T08:11:08.777Z,48.50
2019-05-25T08:13:39.904Z,48.10
2019-05-25T08:16:11.016Z,48.28
2019-05-25T08:18:42.129Z,48.24
2019-05-25T08:21:13.120Z,48.61
2019-05-25T08:23:44.141Z,48.64
2019-05-25T08:26:15.555Z,50.04
2019-05-25T08:28:46.494Z,50.74
2019-05-25T08:31:17.512Z,51.49
2019-05-25T08:33:48.482Z,52.43
2019-05-25T08:36:19.623Z,52.41
2019-05-25T08:38:50.554Z,52.02
2019-05-25T08:41:21.563Z,50.50
2019-05-25T08:43:52.745Z,48.29
2019-05-25T08:46:23.761Z,47.10
2019-05-25T08:48:54.744Z,47.23
2019-05-25T08:51:25.768Z,47.85
2019-05-25T08:53:57.057Z,47.87
2019-05-25T08:56:28.018Z,47.46
2019-05-25T08:58:58.950Z,46.99
2019-05-25T09:01:29.914Z,46.14
2019-05-25T09:04:00.910Z,44.04
2019-05-25T09:06:31.886Z,43.61
2019-05-25T09:09:03.494Z,42.64
2019-05-25T09:11:34.499Z,40.81
2019-05-25T09:14:05.512Z,41.20
2019-05-25T09:16:36.492Z,41.68
2019-05-25T09:19:07.616Z,41.57
2019-05-25T09:21:38.600Z,41.47
2019-05-25T09:24:11.150Z,41.41
2019-05-25T09:26:42.144Z,42.00
2019-05-25T09:29:13.187Z,42.37
2019-05-25T09:31:44.146Z,43.18
2019-05-25T09:34:15.038Z,43.36
2019-05-25T09:36:46.022Z,42.85
2019-05-25T09:39:17.048Z,42.53
2019-05-25T09:41:47.971Z,42.54
2019-05-25T09:44:22.078Z,42.06
2019-05-25T09:46:53.063Z,41.42
2019-05-25T09:49:24.163Z,41.52
2019-05-25T09:51:55.171Z,40.18
2019-05-25T09:54:26.175Z,39.69
2019-05-25T09:56:57.319Z,39.45
2019-05-25T09:59:28.511Z,39.88
2019-05-25T10:01:59.447Z,40.22
2019-05-25T10:04:30.659Z,40.32
2019-05-25T10:07:01.628Z,40.91
2019-05-25T10:09:32.718Z,41.48
2019-05-25T10:12:04.236Z,41.19
2019-05-25T10:14:35.356Z,42.40
2019-05-25T10:17:06.374Z,43.14
2019-05-25T10:19:37.369Z,42.36
2019-05-25T10:22:08.446Z,42.12
2019-05-25T10:24:39.459Z,42.00
2019-05-25T10:27:10.451Z,42.46
2019-05-25T10:29:41.496Z,42.51
2019-05-25T10:32:12.859Z,43.25
2019-05-25T10:34:44.065Z,43.59
2019-05-25T10:37:15.235Z,44.15
2019-05-25T10:39:46.428Z,44.95
2019-05-25T10:42:17.426Z,45.77
2019-05-25T10:44:48.474Z,46.95
2019-05-25T10:47:19.463Z,47.89
2019-05-25T10:49:50.450Z,49.57
2019-05-25T10:52:21.409Z,50.11
2019-05-25T10:54:52.447Z,51.05
2019-05-25T10:57:23.446Z,51.40
2019-05-25T10:59:54.550Z,51.21
2019-05-25T11:02:25.539Z,51.00
2019-05-25T11:04:56.639Z,50.14
2019-05-25T11:07:27.746Z,50.64
2019-05-25T11:09:58.698Z,49.65
2019-05-25T11:12:31.291Z,47.57
2019-05-25T11:15:03.805Z,45.78
2019-05-25T11:17:35.021Z,45.66
2019-05-25T11:20:08.113Z,45.76
2019-05-25T11:22:39.086Z,44.93
2019-05-25T11:25:10.442Z,44.30
2019-05-25T11:27:41.346Z,43.84
2019-05-25T11:30:13.877Z,43.54
2019-05-25T11:32:44.978Z,43.29
2019-05-25T11:35:17.628Z,43.09
2019-05-25T11:37:48.678Z,42.54
2019-05-25T11:40:22.259Z,41.71
2019-05-25T11:42:53.291Z,41.84
2019-05-25T11:45:24.571Z,41.75
2019-05-25T11:47:55.583Z,40.59
2019-05-25T11:50:26.607Z,39.82
2019-05-25T11:52:57.605Z,42.24
2019-05-25T11:55:28.695Z,44.30
2019-05-25T11:58:00.106Z,45.93
2019-05-25T12:00:32.138Z,47.93
2019-05-25T12:03:03.208Z,49.68
2019-05-25T12:05:34.182Z,50.14
2019-05-25T12:08:05.171Z,50.80
2019-05-25T12:10:36.433Z,51.34
2019-05-25T12:13:07.526Z,51.18
2019-05-25T12:15:38.416Z,50.87
2019-05-25T12:18:09.500Z,50.33
2019-05-25T12:20:40.549Z,50.55
2019-05-25T12:23:11.734Z,51.67
2019-05-25T12:25:42.886Z,52.61
2019-05-25T12:28:14.232Z,53.22
2019-05-25T12:30:45.169Z,54.03
2019-05-25T12:33:16.219Z,55.44
2019-05-25T12:35:47.128Z,55.94
2019-05-25T12:38:18.146Z,57.36
2019-05-25T12:40:54.196Z,57.22
2019-05-25T12:43:25.686Z,57.20
2019-05-25T12:45:56.751Z,57.22
2019-05-25T12:48:27.815Z,57.19
2019-05-25T12:50:58.787Z,56.88
2019-05-25T12:53:29.786Z,56.32
2019-05-25T12:56:00.848Z,55.84
2019-05-25T12:58:31.872Z,55.04
2019-05-25T13:01:03.202Z,54.24
2019-05-25T13:03:34.230Z,54.37
2019-05-25T13:06:05.187Z,53.74
2019-05-25T13:08:36.177Z,53.32
2019-05-25T13:11:09.647Z,53.64
2019-05-25T13:13:40.207Z,53.52
2019-05-25T13:16:11.237Z,53.38
2019-05-25T13:18:42.395Z,52.15
2019-05-25T13:21:13.542Z,50.99
2019-05-25T13:23:44.578Z,50.08
2019-05-25T13:26:15.618Z,49.74
2019-05-25T13:28:46.534Z,49.20
2019-05-25T13:31:19.127Z,48.70
2019-05-25T13:33:50.221Z,48.96
2019-05-25T13:36:32.645Z,48.47
2019-05-25T13:39:07.587Z,47.64
2019-05-25T13:41:38.552Z,47.28
2019-05-25T13:44:12.842Z,47.20
2019-05-25T13:46:47.341Z,47.30
2019-05-25T13:49:19.026Z,46.86
2019-05-25T13:52:01.156Z,47.17
2019-05-25T13:54:33.160Z,46.92
2019-05-25T13:57:04.308Z,46.50
2019-05-25T13:59:40.103Z,46.04
2019-05-25T14:02:14.135Z,44.43
2019-05-25T14:04:46.171Z,44.44
2019-05-25T14:07:17.431Z,44.81
2019-05-25T14:09:48.587Z,43.74
2019-05-25T14:12:19.766Z,43.13
2019-05-25T14:14:50.903Z,42.09
2019-05-25T14:17:21.956Z,41.88
2019-05-25T14:19:52.972Z,41.86
2019-05-25T14:22:27.240Z,41.52
2019-05-25T14:24:58.402Z,41.34
2019-05-25T14:27:29.585Z,41.47
2019-05-25T14:30:00.581Z,41.42
2019-05-25T14:32:31.629Z,41.16
2019-05-25T14:35:02.693Z,40.50
2019-05-25T14:37:35.340Z,40.86
2019-05-25T14:40:11.086Z,40.89
2019-05-25T14:42:40.594Z,40.84
2019-05-25T14:45:13.531Z,40.73
2019-05-25T14:47:44.588Z,40.98
2019-05-25T14:50:15.572Z,41.00
2019-05-25T14:52:46.730Z,41.14
2019-05-25T14:55:20.965Z,41.57
2019-05-25T14:57:52.063Z,41.76
2019-05-25T15:00:23.140Z,42.08
2019-05-25T15:02:58.665Z,42.28
2019-05-25T15:05:31.262Z,42.53
2019-05-25T15:08:03.787Z,42.49
2019-05-25T15:10:34.839Z,43.36
2019-05-25T15:13:06.360Z,43.86
2019-05-25T15:15:37.639Z,44.04
2019-05-25T15:18:08.663Z,44.87
2019-05-25T15:20:39.727Z,44.95
2019-05-25T15:23:14.070Z,45.06
2019-05-25T15:25:46.011Z,45.12
2019-05-25T15:28:17.136Z,45.03
2019-05-25T15:30:48.093Z,45.35
2019-05-25T15:33:19.503Z,46.08
2019-05-25T15:35:50.787Z,46.09
2019-05-25T15:38:21.880Z,45.98
2019-05-25T15:40:52.907Z,45.75
2019-05-25T15:43:23.796Z,45.57
2019-05-25T15:45:54.867Z,48.78
2019-05-25T15:48:26.486Z,52.53
2019-05-25T15:50:57.724Z,53.38
2019-05-25T15:53:28.769Z,55.40
2019-05-25T15:55:59.838Z,56.55
2019-05-25T15:58:30.894Z,57.12
2019-05-25T16:01:02.046Z,57.46
2019-05-25T16:03:33.148Z,57.61
2019-05-25T16:06:04.156Z,58.00
2019-05-25T16:08:35.399Z,58.58
2019-05-25T16:11:06.631Z,59.91
2019-05-25T16:13:37.723Z,60.76
2019-05-25T16:16:08.866Z,61.14
2019-05-25T16:18:39.819Z,61.26
2019-05-25T16:21:11.157Z,60.43
2019-05-25T16:23:42.224Z,60.56
2019-05-25T16:26:13.289Z,60.72
2019-05-25T16:28:44.269Z,61.48
2019-05-25T16:31:15.410Z,62.05
2019-05-25T16:33:46.421Z,62.68
2019-05-25T16:36:17.461Z,63.17
2019-05-25T16:38:48.590Z,63.46
2019-05-25T16:41:19.737Z,64.17
2019-05-25T16:43:50.721Z,64.83
2019-05-25T16:46:21.771Z,65.47
2019-05-25T16:48:52.768Z,65.81
2019-05-25T16:51:23.852Z,66.35
2019-05-25T16:53:54.847Z,66.60
2019-05-25T16:56:25.842Z,66.43
2019-05-25T16:58:56.834Z,66.64
2019-05-25T17:01:46.515Z,66.89
2019-05-25T17:04:01.201Z,67.12
2019-05-25T17:06:32.223Z,67.24
2019-05-25T17:09:03.850Z,67.24
2019-05-25T17:11:34.805Z,67.78
2019-05-25T17:14:05.755Z,68.22
2019-05-25T17:16:36.844Z,68.55
2019-05-25T17:19:07.889Z,69.02
2019-05-25T17:21:38.985Z,69.54
2019-05-25T17:24:09.963Z,69.78
2019-05-25T17:26:41.019Z,70.22
2019-05-25T17:29:12.025Z,70.64
2019-05-25T17:31:43.040Z,71.05
2019-05-25T17:34:14.028Z,72.21
2019-05-25T17:36:45.040Z,72.53
2019-05-25T17:39:16.194Z,72.66
2019-05-25T17:41:47.092Z,73.50
2019-05-25T17:44:19.011Z,73.48
2019-05-25T17:46:50.045Z,73.41
2019-05-25T17:49:21.073Z,73.73
2019-05-25T17:51:52.532Z,74.04
2019-05-25T17:54:23.686Z,74.30
2019-05-25T17:56:54.927Z,74.42
2019-05-25T17:59:25.921Z,74.68
2019-05-25T18:01:57.736Z,74.83
2019-05-25T18:04:28.940Z,75.00
2019-05-25T18:07:00.019Z,75.14
2019-05-25T18:09:31.113Z,75.49
2019-05-25T18:12:02.421Z,75.29
2019-05-25T18:14:34.845Z,75.33
2019-05-25T18:17:06.231Z,75.76
2019-05-25T18:19:37.652Z,75.75
2019-05-25T18:22:09.026Z,76.02
2019-05-25T18:24:40.367Z,76.20
2019-05-25T18:27:11.589Z,76.40
2019-05-25T18:29:42.641Z,76.45
2019-05-25T18:32:13.839Z,76.51
2019-05-25T18:34:44.819Z,76.61
2019-05-25T18:37:16.018Z,76.50
2019-05-25T18:39:48.231Z,76.59
2019-05-25T18:42:20.190Z,76.92
2019-05-25T18:44:51.410Z,77.17
2019-05-25T18:47:22.628Z,77.10
2019-05-25T18:49:53.707Z,77.21
2019-05-25T18:52:24.865Z,77.32
2019-05-25T18:54:55.937Z,77.32
2019-05-25T18:57:27.293Z,77.61
2019-05-25T18:59:59.758Z,77.70
2019-05-25T19:02:31.914Z,77.88
2019-05-25T19:05:03.237Z,77.87
2019-05-25T19:07:37.805Z,78.03
2019-05-25T19:10:09.878Z,78.08
2019-05-25T19:12:41.415Z,77.94
2019-05-25T19:15:12.870Z,77.80
2019-05-25T19:17:44.106Z,77.80
2019-05-25T19:20:21.412Z,77.66
2019-05-25T19:23:10.906Z,77.60
2019-05-25T19:25:44.599Z,77.52
2019-05-25T19:28:15.698Z,77.56
2019-05-25T19:30:46.788Z,77.41
2019-05-25T19:33:17.777Z,77.31
2019-05-25T19:35:54.153Z,77.39
2019-05-25T19:38:24.264Z,77.09
2019-05-25T19:40:55.389Z,76.98
2019-05-25T19:43:28.058Z,77.17
2019-05-25T19:45:59.207Z,76.80
2019-05-25T19:48:30.475Z,76.71
2019-05-25T19:51:01.797Z,76.62
2019-05-25T19:53:32.872Z,76.76
2019-05-25T19:56:04.073Z,77.09
2019-05-25T19:58:38.126Z,77.17
2019-05-25T20:01:09.386Z,77.23
2019-05-25T20:03:40.433Z,77.34
2019-05-25T20:06:11.703Z,77.37
2019-05-25T20:08:42.998Z,77.28
2019-05-25T20:11:14.067Z,77.35
2019-05-25T20:13:45.151Z,77.40
2019-05-25T20:16:16.194Z,77.31
2019-05-25T20:18:47.341Z,77.43
2019-05-25T20:21:18.510Z,77.69
2019-05-25T20:23:49.589Z,77.78
2019-05-25T20:26:20.696Z,77.53
2019-05-25T20:28:51.823Z,77.33
2019-05-25T20:31:24.370Z,77.18
2019-05-25T20:33:55.574Z,77.19
2019-05-25T20:36:26.744Z,77.30
2019-05-25T20:38:57.851Z,77.34
2019-05-25T20:41:28.914Z,77.50
2019-05-25T20:43:59.963Z,77.50
2019-05-25T20:46:31.101Z,77.40
2019-05-25T20:49:02.186Z,77.36
2019-05-25T20:51:33.235Z,77.31
2019-05-25T20:54:05.198Z,77.50
2019-05-25T20:56:36.310Z,77.47
2019-05-25T20:59:07.561Z,77.58
2019-05-25T21:01:38.593Z,77.76
2019-05-25T21:04:09.587Z,77.70
2019-05-25T21:06:40.651Z,77.82
2019-05-25T21:09:11.698Z,77.86
2019-05-25T21:11:42.674Z,77.86
2019-05-25T21:14:13.634Z,77.72
2019-05-25T21:16:44.620Z,77.64
2019-05-25T21:19:15.634Z,77.58
2019-05-25T21:21:46.710Z,77.66
2019-05-25T21:24:17.786Z,77.84
2019-05-25T21:26:48.958Z,77.92
2019-05-25T21:29:20.011Z,77.94
2019-05-25T21:31:51.109Z,78.11
2019-05-25T21:34:22.214Z,78.21
2019-05-25T21:36:54.027Z,78.27
2019-05-25T21:39:25.192Z,78.38
2019-05-25T21:41:56.338Z,78.44
2019-05-25T21:44:27.478Z,78.41
2019-05-25T21:46:58.440Z,78.41
2019-05-25T21:49:29.564Z,78.46
2019-05-25T21:52:00.612Z,78.61
2019-05-25T21:54:31.645Z,78.59
2019-05-25T21:57:02.680Z,78.68
2019-05-25T21:59:33.745Z,78.91
2019-05-25T22:02:04.844Z,78.88
2019-05-25T22:04:35.893Z,78.83
2019-05-25T22:07:06.907Z,78.88
2019-05-25T22:09:37.920Z,78.87
2019-05-25T22:12:09.117Z,78.91
2019-05-25T22:14:40.178Z,78.84
2019-05-25T22:17:11.535Z,78.83
2019-05-25T22:19:42.525Z,78.69
2019-05-25T22:22:14.259Z,78.78
2019-05-25T22:24:45.289Z,78.66
2019-05-25T22:27:16.493Z,78.91
2019-05-25T22:29:47.712Z,78.59
2019-05-25T22:32:18.878Z,78.48
2019-05-25T22:34:49.917Z,78.31
2019-05-25T22:37:20.975Z,78.29
2019-05-25T22:39:52.053Z,78.16
2019-05-25T22:42:23.034Z,77.95
2019-05-25T22:44:54.067Z,77.85
2019-05-25T22:47:26.260Z,77.70
2019-05-25T22:49:57.387Z,77.63
2019-05-25T22:52:28.552Z,77.56
2019-05-25T22:54:59.780Z,77.57
2019-05-25T22:57:30.890Z,77.70
2019-05-25T23:00:02.117Z,77.54
2019-05-25T23:02:33.386Z,77.55
2019-05-25T23:05:08.109Z,77.64
2019-05-25T23:07:39.205Z,77.69
2019-05-25T23:10:11.320Z,77.54
2019-05-25T23:12:42.358Z,77.60
2019-05-25T23:15:14.320Z,77.54
2019-05-25T23:17:45.451Z,77.53
2019-05-25T23:20:17.186Z,77.71
2019-05-25T23:22:49.377Z,77.91
2019-05-25T23:25:20.484Z,78.20
2019-05-25T23:27:51.495Z,78.47
2019-05-25T23:30:22.644Z,78.47
2019-05-25T23:32:53.839Z,78.67
2019-05-25T23:35:24.929Z,78.68
2019-05-25T23:37:56.011Z,78.86
2019-05-25T23:40:27.049Z,78.87
2019-05-25T23:42:58.113Z,78.96
2019-05-25T23:45:30.148Z,79.07
2019-05-25T23:48:01.078Z,79.20
2019-05-25T23:50:32.134Z,79.26
2019-05-25T23:53:03.233Z,79.40
2019-05-25T23:55:34.388Z,79.43
2019-05-25T23:58:05.606Z,79.55
